Time;durP1;ratioP1;P1;durP2;ratioP2;P2;SDS_P1;SDS_P2;PMS_P1;PMS_P2;Temp;Humidity;BMP_temperature;BMP_pressure;BME280_temperature;BME280_humidity;BME280_pressure;Samples;Min_cycle;Max_cycle;Signal;HPM_P1;HPM_P2
2023/05/26 00:01:02;;;;;;;15.35;10.23;;;13.60;99.90;;;;;;5037503;28;20088;-38
2023/05/26 00:03:30;;;;;;;14.13;10.23;;;13.60;99.90;;;;;;5036471;28;20084;-39
2023/05/26 00:05:57;;;;;;;15.25;10.02;;;13.60;99.90;;;;;;5029973;28;20100;-40
2023/05/26 00:08:24;;;;;;;19.65;10.13;;;13.50;99.90;;;;;;5033157;28;20156;-38
2023/05/26 00:10:52;;;;;;;14.52;9.93;;;13.50;99.90;;;;;;5034141;28;20072;-42
2023/05/26 00:13:19;;;;;;;18.38;10.70;;;13.40;99.90;;;;;;5044025;28;20041;-42
2023/05/26 00:15:46;;;;;;;18.73;10.85;;;13.40;99.90;;;;;;5044385;28;20076;-41
2023/05/26 00:18:14;;;;;;;16.00;10.30;;;13.40;99.90;;;;;;5044241;28;20055;-40
2023/05/26 00:20:42;;;;;;;13.23;10.60;;;13.30;99.90;;;;;;5035507;28;20049;-41
2023/05/26 00:23:09;;;;;;;14.70;10.38;;;13.30;99.90;;;;;;5035392;28;20107;-39
2023/05/26 00:25:37;;;;;;;13.77;10.40;;;13.30;99.90;;;;;;5033093;28;20045;-40
2023/05/26 00:28:04;;;;;;;12.75;10.10;;;13.20;99.90;;;;;;5040228;28;20045;-41
2023/05/26 00:30:31;;;;;;;14.68;10.57;;;13.20;99.90;;;;;;5032766;28;20072;-41
2023/05/26 00:32:58;;;;;;;20.27;10.63;;;13.10;99.90;;;;;;5024514;28;20056;-42
2023/05/26 00:35:26;;;;;;;16.17;10.75;;;13.20;99.90;;;;;;5033462;28;20060;-45
2023/05/26 00:37:53;;;;;;;16.15;10.43;;;13.10;99.90;;;;;;5033923;28;20375;-40
2023/05/26 00:40:21;;;;;;;17.25;10.88;;;13.10;99.90;;;;;;5029565;28;20037;-39
2023/05/26 00:42:48;;;;;;;18.58;11.23;;;13.10;99.90;;;;;;5033901;28;20457;-42
2023/05/26 00:45:15;;;;;;;16.85;10.60;;;13.10;99.90;;;;;;5033679;28;20057;-40
2023/05/26 00:47:43;;;;;;;13.85;10.60;;;13.10;99.90;;;;;;5031602;28;20053;-41
2023/05/26 00:50:12;;;;;;;14.18;10.38;;;13.00;99.90;;;;;;5016485;28;20053;-42
2023/05/26 00:52:43;;;;;;;15.02;11.02;;;13.00;99.90;;;;;;5024706;28;20041;-43
2023/05/26 00:55:11;;;;;;;16.92;10.40;;;13.00;99.90;;;;;;5045165;28;20052;-39
2023/05/26 00:57:38;;;;;;;16.23;10.90;;;12.90;99.90;;;;;;5034221;28;20048;-41
2023/05/26 01:00:09;;;;;;;18.88;10.50;;;12.90;99.90;;;;;;5033624;28;20124;-41
2023/05/26 01:02:40;;;;;;;17.33;11.77;;;12.90;99.90;;;;;;5032750;28;20041;-41
2023/05/26 01:05:08;;;;;;;17.17;10.15;;;12.80;99.90;;;;;;5032596;28;20041;-41
2023/05/26 01:07:36;;;;;;;16.70;10.60;;;12.80;99.90;;;;;;5033223;28;20083;-41
2023/05/26 01:10:04;;;;;;;19.23;11.02;;;12.80;99.90;;;;;;5025405;28;20053;-40
2023/05/26 01:12:37;;;;;;;15.02;10.63;;;12.70;99.90;;;;;;5048957;28;20072;-39
2023/05/26 01:15:23;;;;;;;17.20;9.95;;;12.70;99.90;;;;;;5044983;28;20084;-39
2023/05/26 01:17:56;;;;;;;15.63;10.23;;;12.70;99.90;;;;;;5033100;28;20041;-41
2023/05/26 01:20:48;;;;;;;20.15;11.00;;;12.70;99.90;;;;;;5043187;28;20055;-41
2023/05/26 01:23:37;;;;;;;21.08;11.85;;;12.60;99.90;;;;;;5027760;28;20051;-41
2023/05/26 01:26:57;;;;;;;19.42;11.32;;;12.60;99.90;;;;;;5046744;28;20071;-41
2023/05/26 01:29:27;;;;;;;20.30;11.38;;;12.60;99.90;;;;;;5037313;28;20053;-38
2023/05/26 01:32:04;;;;;;;22.90;12.43;;;12.60;99.90;;;;;;5057404;28;20045;-39
2023/05/26 01:34:31;;;;;;;17.73;10.68;;;12.50;99.90;;;;;;5052189;28;20081;-41
2023/05/26 01:36:58;;;;;;;15.02;10.40;;;12.50;99.90;;;;;;5054914;28;20071;-39
2023/05/26 01:39:29;;;;;;;15.23;10.60;;;12.50;99.90;;;;;;5055570;28;20044;-40
2023/05/26 01:42:10;;;;;;;17.63;10.52;;;12.50;99.90;;;;;;5055361;28;20459;-41
2023/05/26 01:45:08;;;;;;;19.45;11.40;;;12.50;99.90;;;;;;5030106;28;20045;-42
2023/05/26 01:47:39;;;;;;;18.05;10.57;;;12.40;99.90;;;;;;5051308;28;20132;-41
2023/05/26 01:50:08;;;;;;;15.73;10.88;;;12.40;99.90;;;;;;5034278;28;20119;-41
2023/05/26 01:52:41;;;;;;;20.60;12.10;;;12.30;99.90;;;;;;5051611;28;20068;-41
2023/05/26 01:55:13;;;;;;;12.88;10.27;;;12.40;99.90;;;;;;5054003;28;20051;-43
2023/05/26 01:57:43;;;;;;;15.20;10.88;;;12.30;99.90;;;;;;5042712;28;20048;-40
2023/05/26 02:00:12;;;;;;;16.85;10.15;;;12.30;99.90;;;;;;5048847;28;20041;-41
2023/05/26 02:02:42;;;;;;;18.92;11.02;;;12.30;99.90;;;;;;5054956;28;20033;-42
2023/05/26 02:05:09;;;;;;;15.23;11.40;;;12.30;99.90;;;;;;5037218;28;20041;-39
2023/05/26 02:07:40;;;;;;;16.00;11.07;;;12.20;99.90;;;;;;5036233;28;20038;-43
2023/05/26 02:10:08;;;;;;;17.05;11.60;;;12.20;99.90;;;;;;5044520;28;20053;-41
2023/05/26 02:12:36;;;;;;;16.80;11.48;;;12.20;99.90;;;;;;5062842;28;20076;-41
2023/05/26 02:15:03;;;;;;;16.35;10.98;;;12.10;99.90;;;;;;5070869;28;20052;-43
2023/05/26 02:17:32;;;;;;;16.92;11.13;;;12.10;99.90;;;;;;5063313;28;20049;-41
2023/05/26 02:20:00;;;;;;;18.20;11.27;;;12.10;99.90;;;;;;5041050;28;20053;-41
2023/05/26 02:22:28;;;;;;;16.48;10.98;;;12.10;99.90;;;;;;5033728;28;20055;-43
2023/05/26 02:24:57;;;;;;;15.40;10.30;;;12.00;99.90;;;;;;5049460;28;20060;-44
2023/05/26 02:27:24;;;;;;;15.93;11.00;;;12.00;99.90;;;;;;5053977;28;20036;-41
2023/05/26 02:29:52;;;;;;;18.27;11.38;;;12.00;99.90;;;;;;5063876;28;20052;-41
2023/05/26 02:32:19;;;;;;;18.00;11.55;;;11.90;99.90;;;;;;5031807;28;20141;-41
2023/05/26 02:34:46;;;;;;;15.63;10.70;;;11.90;99.90;;;;;;5029687;28;20495;-41
2023/05/26 02:37:17;;;;;;;16.13;10.85;;;11.90;99.90;;;;;;5057699;28;20079;-43
2023/05/26 02:39:44;;;;;;;13.65;11.07;;;11.90;99.90;;;;;;5038789;28;20136;-41
2023/05/26 02:42:11;;;;;;;15.70;10.43;;;11.80;99.90;;;;;;5041655;28;20108;-40
2023/05/26 02:44:39;;;;;;;16.85;11.15;;;11.80;99.90;;;;;;5036287;28;20517;-42
2023/05/26 02:47:06;;;;;;;18.13;10.88;;;11.80;99.90;;;;;;5034968;28;20445;-41
2023/05/26 02:49:34;;;;;;;13.85;10.85;;;11.80;99.90;;;;;;5045381;28;20061;-44
2023/05/26 02:52:01;;;;;;;19.25;11.80;;;11.80;99.90;;;;;;5011568;28;20041;-38
2023/05/26 02:54:29;;;;;;;18.20;10.82;;;11.80;99.90;;;;;;5023091;28;20050;-39
2023/05/26 02:56:56;;;;;;;18.60;11.50;;;11.80;99.90;;;;;;5032302;28;20045;-42
2023/05/26 02:59:23;;;;;;;14.70;11.50;;;11.80;99.90;;;;;;5017155;28;20136;-41
2023/05/26 03:01:51;;;;;;;18.80;11.88;;;11.80;99.90;;;;;;5019801;28;20041;-43
2023/05/26 03:04:18;;;;;;;17.92;11.80;;;11.70;99.90;;;;;;5040401;28;20094;-41
2023/05/26 03:06:45;;;;;;;15.93;11.10;;;11.70;99.90;;;;;;5050882;28;20107;-41
2023/05/26 03:09:16;;;;;;;16.65;11.02;;;11.70;99.90;;;;;;5032407;28;20053;-40
2023/05/26 03:11:43;;;;;;;15.50;11.32;;;11.70;99.90;;;;;;5037197;28;20058;-41
2023/05/26 03:14:11;;;;;;;14.30;10.77;;;11.70;99.90;;;;;;5044037;28;20047;-42
2023/05/26 03:16:38;;;;;;;14.95;10.57;;;11.60;99.90;;;;;;5042500;28;20060;-40
2023/05/26 03:19:06;;;;;;;19.70;11.32;;;11.60;99.90;;;;;;5053953;28;20056;-40
2023/05/26 03:21:35;;;;;;;17.33;12.40;;;11.60;99.90;;;;;;5033676;28;20128;-41
2023/05/26 03:24:17;;;;;;;13.68;11.38;;;11.60;99.90;;;;;;5050592;28;20091;-40
2023/05/26 03:26:45;;;;;;;16.73;11.23;;;11.60;99.90;;;;;;5032623;28;20095;-40
2023/05/26 03:29:14;;;;;;;16.50;10.65;;;11.50;99.90;;;;;;5016727;28;20053;-40
2023/05/26 03:31:42;;;;;;;16.60;10.85;;;11.60;99.90;;;;;;5052959;28;20048;-39
2023/05/26 03:34:09;;;;;;;18.45;10.63;;;11.50;99.90;;;;;;5029560;28;20037;-41
2023/05/26 03:36:38;;;;;;;16.63;10.50;;;11.60;99.90;;;;;;5029696;28;20059;-39
2023/05/26 03:39:22;;;;;;;15.15;11.07;;;11.60;99.90;;;;;;5035411;28;20037;-41
2023/05/26 03:41:50;;;;;;;19.05;11.20;;;11.60;99.90;;;;;;5025208;28;20065;-41
2023/05/26 03:44:21;;;;;;;17.05;10.68;;;11.60;99.90;;;;;;5010850;28;20049;-41
2023/05/26 03:46:49;;;;;;;15.60;10.20;;;11.70;99.90;;;;;;5040045;28;20056;-42
2023/05/26 03:49:16;;;;;;;16.10;10.23;;;11.70;99.90;;;;;;5048445;28;20071;-42
2023/05/26 03:51:44;;;;;;;16.00;10.85;;;11.70;99.90;;;;;;5067070;28;20057;-40
2023/05/26 03:54:11;;;;;;;16.42;10.48;;;11.70;99.90;;;;;;5039604;28;20052;-44
2023/05/26 03:56:39;;;;;;;17.15;11.38;;;11.70;99.90;;;;;;5044419;28;20144;-43
2023/05/26 03:59:06;;;;;;;19.10;11.45;;;11.80;99.90;;;;;;5046597;28;20042;-41
2023/05/26 04:01:36;;;;;;;17.02;10.43;;;11.70;99.90;;;;;;5049746;28;20097;-41
2023/05/26 04:04:04;;;;;;;16.88;10.23;;;11.70;99.90;;;;;;5041086;28;20054;-41
2023/05/26 04:06:32;;;;;;;16.80;10.80;;;11.80;99.90;;;;;;5041064;28;20113;-38
2023/05/26 04:09:01;;;;;;;19.52;12.00;;;11.80;99.90;;;;;;5028363;28;20258;-41
2023/05/26 04:11:28;;;;;;;20.20;12.10;;;11.80;99.90;;;;;;5032708;28;20053;-39
2023/05/26 04:13:55;;;;;;;20.00;11.63;;;11.80;99.90;;;;;;5040590;28;20126;-41
2023/05/26 04:16:23;;;;;;;17.27;11.35;;;11.90;99.90;;;;;;5062453;28;20071;-42
2023/05/26 04:18:50;;;;;;;18.45;10.90;;;11.90;99.90;;;;;;5042618;28;20079;-40
2023/05/26 04:21:19;;;;;;;17.45;11.80;;;11.90;99.90;;;;;;5042835;28;20037;-40
2023/05/26 04:23:51;;;;;;;16.83;10.88;;;11.80;99.90;;;;;;5014308;28;20087;-44
2023/05/26 04:26:21;;;;;;;19.95;11.52;;;11.80;99.90;;;;;;5035747;28;20041;-43
2023/05/26 04:29:08;;;;;;;16.65;11.48;;;11.90;99.90;;;;;;5034333;28;20105;-42
2023/05/26 04:31:50;;;;;;;15.45;10.93;;;12.00;99.90;;;;;;5019877;28;20067;-44
2023/05/26 04:34:37;;;;;;;16.42;11.10;;;12.10;99.90;;;;;;5040138;28;20056;-42
2023/05/26 04:37:20;;;;;;;19.63;12.43;;;12.20;99.90;;;;;;5026602;28;21165;-43
2023/05/26 04:39:48;;;;;;;18.95;11.95;;;12.30;99.90;;;;;;5029540;28;20103;-43
2023/05/26 04:42:16;;;;;;;19.05;11.27;;;12.30;99.90;;;;;;5025760;28;20057;-41
2023/05/26 04:44:43;;;;;;;17.02;12.40;;;12.30;99.90;;;;;;5028507;28;20037;-43
2023/05/26 04:47:12;;;;;;;15.15;12.10;;;12.30;99.90;;;;;;5018324;28;20080;-42
2023/05/26 04:49:40;;;;;;;18.95;11.80;;;12.40;99.90;;;;;;5026749;28;20042;-42
2023/05/26 04:52:09;;;;;;;16.92;12.73;;;12.40;99.90;;;;;;5039494;28;20470;-43
2023/05/26 04:54:40;;;;;;;18.60;12.27;;;12.40;99.90;;;;;;5027248;28;20072;-42
2023/05/26 04:57:09;;;;;;;18.17;11.95;;;12.40;99.90;;;;;;5028704;28;20057;-42
2023/05/26 04:59:56;;;;;;;16.75;11.32;;;12.50;99.90;;;;;;5010263;28;20042;-43
2023/05/26 05:02:23;;;;;;;15.02;11.45;;;12.60;99.90;;;;;;5030646;28;20104;-42
2023/05/26 05:05:07;;;;;;;14.63;11.25;;;12.60;99.90;;;;;;5028062;28;20048;-43
2023/05/26 05:07:34;;;;;;;17.17;11.35;;;12.70;99.90;;;;;;5023354;28;20466;-43
2023/05/26 05:10:02;;;;;;;15.60;10.48;;;12.80;99.90;;;;;;5024803;28;20099;-42
2023/05/26 05:12:32;;;;;;;17.77;11.35;;;12.90;99.90;;;;;;5019529;28;20132;-43
2023/05/26 05:15:01;;;;;;;16.73;11.02;;;12.90;99.90;;;;;;5016473;28;20046;-43
2023/05/26 05:17:31;;;;;;;15.18;10.90;;;13.00;99.90;;;;;;5026820;28;20473;-43
2023/05/26 05:19:58;;;;;;;14.88;10.65;;;12.90;99.90;;;;;;5015835;28;20033;-42
2023/05/26 05:22:43;;;;;;;15.35;10.80;;;13.00;99.90;;;;;;5017757;28;20094;-43
2023/05/26 05:25:12;;;;;;;17.67;10.60;;;13.10;99.90;;;;;;5010245;28;20049;-44
2023/05/26 05:27:39;;;;;;;17.80;10.38;;;13.20;99.90;;;;;;5030305;28;20561;-41
2023/05/26 05:30:07;;;;;;;18.10;10.88;;;13.30;99.90;;;;;;5016605;28;20045;-44
2023/05/26 05:32:34;;;;;;;20.05;11.52;;;13.40;99.90;;;;;;4999656;28;20046;-44
2023/05/26 05:35:02;;;;;;;15.55;10.60;;;13.50;99.90;;;;;;5020058;28;20041;-43
2023/05/26 05:37:30;;;;;;;18.20;11.40;;;13.60;99.90;;;;;;5017209;28;20041;-43
2023/05/26 05:39:57;;;;;;;17.48;11.35;;;13.70;99.90;;;;;;5033020;28;20045;-44
2023/05/26 05:42:25;;;;;;;20.15;12.10;;;13.80;99.90;;;;;;5016771;28;20041;-43
2023/05/26 05:44:52;;;;;;;20.25;12.40;;;13.80;99.90;;;;;;5013982;28;20061;-44
2023/05/26 05:47:33;;;;;;;16.42;10.35;;;13.90;99.90;;;;;;5018259;28;20049;-44
2023/05/26 05:50:05;;;;;;;18.08;10.82;;;13.90;99.90;;;;;;5018911;28;20046;-44
2023/05/26 05:52:35;;;;;;;16.73;10.68;;;14.00;99.90;;;;;;5019721;28;20047;-45
2023/05/26 05:55:02;;;;;;;15.50;10.43;;;14.00;99.90;;;;;;5039187;28;20045;-44
2023/05/26 05:57:30;;;;;;;14.82;10.90;;;14.20;99.90;;;;;;5020914;28;20107;-45
2023/05/26 05:59:57;;;;;;;17.42;10.15;;;14.20;99.90;;;;;;5015813;28;20042;-42
2023/05/26 06:02:25;;;;;;;14.75;10.32;;;14.30;99.90;;;;;;5016079;28;20057;-44
2023/05/26 06:04:52;;;;;;;14.23;10.80;;;14.40;99.90;;;;;;5014852;28;20116;-44
2023/05/26 06:07:20;;;;;;;19.45;10.65;;;14.50;99.90;;;;;;5015675;28;20306;-43
2023/05/26 06:09:47;;;;;;;17.45;10.45;;;14.50;99.90;;;;;;5033042;28;20042;-43
2023/05/26 06:12:15;;;;;;;18.02;10.23;;;14.40;99.90;;;;;;5015719;28;20054;-42
2023/05/26 06:14:42;;;;;;;15.20;10.25;;;14.50;99.90;;;;;;5015186;28;20116;-41
2023/05/26 06:17:10;;;;;;;16.30;10.40;;;14.60;99.90;;;;;;5015465;28;20490;-41
2023/05/26 06:19:37;;;;;;;15.43;9.80;;;14.70;99.90;;;;;;5014083;28;20048;-42
2023/05/26 06:22:05;;;;;;;15.68;10.52;;;14.80;99.90;;;;;;5015387;28;20673;-45
2023/05/26 06:24:32;;;;;;;16.75;10.98;;;14.90;99.90;;;;;;5017329;28;20414;-42
2023/05/26 06:27:00;;;;;;;16.48;10.93;;;14.90;99.90;;;;;;5015269;28;20069;-44
2023/05/26 06:29:28;;;;;;;18.77;10.73;;;15.00;99.90;;;;;;5012019;28;20037;-45
2023/05/26 06:31:55;;;;;;;21.35;10.80;;;15.10;99.90;;;;;;5015311;28;20107;-43
2023/05/26 06:34:22;;;;;;;15.52;11.20;;;15.10;99.90;;;;;;5015138;28;20038;-43
2023/05/26 06:36:50;;;;;;;15.85;11.80;;;15.30;99.90;;;;;;5015120;28;20045;-43
2023/05/26 06:39:19;;;;;;;14.70;10.45;;;15.30;99.90;;;;;;5015512;28;20482;-42
2023/05/26 06:41:46;;;;;;;13.65;9.90;;;15.40;99.90;;;;;;5014900;28;20052;-41
2023/05/26 06:44:15;;;;;;;11.35;9.35;;;15.50;99.90;;;;;;5014871;28;20041;-41
2023/05/26 06:46:42;;;;;;;16.55;10.15;;;15.60;99.90;;;;;;5027760;28;20071;-44
2023/05/26 06:49:09;;;;;;;13.05;9.85;;;15.70;99.90;;;;;;5035215;28;20253;-42
2023/05/26 06:51:44;;;;;;;14.45;10.35;;;15.80;99.90;;;;;;5034326;28;20067;-43
2023/05/26 06:54:12;;;;;;;17.65;10.27;;;15.90;99.90;;;;;;5021708;28;20481;-42
2023/05/26 06:56:39;;;;;;;17.13;11.27;;;15.90;99.90;;;;;;5025956;28;20106;-41
2023/05/26 06:59:07;;;;;;;16.60;11.95;;;15.90;99.90;;;;;;5027845;28;20048;-43
2023/05/26 07:01:35;;;;;;;15.05;9.55;;;16.00;99.90;;;;;;5043038;28;20040;-44
2023/05/26 07:04:02;;;;;;;14.70;10.18;;;16.20;99.90;;;;;;5053033;28;20350;-44
2023/05/26 07:06:32;;;;;;;18.13;10.18;;;16.30;99.90;;;;;;5016962;28;20402;-44
2023/05/26 07:09:17;;;;;;;16.40;10.88;;;16.40;99.90;;;;;;5017317;28;20052;-44
2023/05/26 07:11:55;;;;;;;18.33;10.35;;;16.60;99.90;;;;;;5010847;28;20568;-44
2023/05/26 07:14:46;;;;;;;15.45;10.32;;;16.80;99.90;;;;;;5025198;28;20110;-43
2023/05/26 07:17:14;;;;;;;15.55;10.88;;;16.90;99.90;;;;;;5043293;28;20120;-44
2023/05/26 07:19:44;;;;;;;12.43;9.38;;;17.00;99.90;;;;;;5022563;28;20050;-45
2023/05/26 07:22:12;;;;;;;29.40;14.70;;;17.20;99.90;;;;;;5045853;28;20513;-46
2023/05/26 07:24:52;;;;;;;14.32;10.82;;;17.30;99.90;;;;;;5026050;28;20045;-42
2023/05/26 07:27:28;;;;;;;13.68;10.20;;;17.40;99.90;;;;;;5022733;28;20045;-43
2023/05/26 07:29:55;;;;;;;11.63;9.00;;;17.40;99.90;;;;;;5035285;28;20045;-45
2023/05/26 07:32:22;;;;;;;20.23;14.35;;;17.50;99.90;;;;;;5033155;28;20072;-46
2023/05/26 07:34:50;;;;;;;15.85;11.77;;;17.60;99.90;;;;;;5014982;28;20056;-42
2023/05/26 07:37:18;;;;;;;16.33;10.25;;;17.70;99.90;;;;;;5014458;28;20071;-42
2023/05/26 07:39:45;;;;;;;12.88;9.73;;;17.80;99.90;;;;;;5034397;28;20037;-43
2023/05/26 07:42:12;;;;;;;15.30;9.18;;;17.90;99.90;;;;;;5044293;28;20049;-43
2023/05/26 07:44:39;;;;;;;11.07;9.73;;;17.90;99.90;;;;;;5051545;28;20043;-43
2023/05/26 07:47:07;;;;;;;10.57;9.13;;;18.00;99.90;;;;;;5048833;28;20103;-42
2023/05/26 07:49:34;;;;;;;14.88;9.82;;;17.90;99.90;;;;;;5049129;28;20077;-43
2023/05/26 07:52:01;;;;;;;11.32;8.63;;;18.00;99.90;;;;;;5059207;28;20057;-42
2023/05/26 07:54:29;;;;;;;20.75;10.70;;;18.00;99.90;;;;;;5057367;28;20080;-42
2023/05/26 07:56:57;;;;;;;15.10;9.57;;;18.10;99.90;;;;;;5049495;28;20036;-43
2023/05/26 07:59:25;;;;;;;11.82;9.38;;;18.20;99.90;;;;;;5053832;28;20041;-40
2023/05/26 08:01:52;;;;;;;13.55;8.98;;;18.30;99.90;;;;;;5045918;28;20103;-42
2023/05/26 08:04:20;;;;;;;13.40;9.02;;;18.50;99.90;;;;;;5042438;28;20045;-42
2023/05/26 08:06:47;;;;;;;14.77;10.40;;;18.50;99.90;;;;;;5041565;28;20557;-44
2023/05/26 08:09:14;;;;;;;15.75;9.23;;;18.60;99.90;;;;;;5044793;28;20051;-42
2023/05/26 08:11:42;;;;;;;11.48;8.70;;;18.60;99.90;;;;;;5045731;28;20049;-43
2023/05/26 08:14:09;;;;;;;14.85;9.68;;;18.60;99.90;;;;;;5050671;28;20032;-42
2023/05/26 08:16:36;;;;;;;11.90;8.95;;;18.70;99.90;;;;;;5044649;28;20037;-43
2023/05/26 08:19:05;;;;;;;11.07;8.27;;;18.70;99.90;;;;;;5043081;28;20099;-43
2023/05/26 08:21:32;;;;;;;12.05;9.10;;;18.70;99.90;;;;;;5049602;28;20135;-43
2023/05/26 08:24:00;;;;;;;11.95;9.38;;;18.70;99.90;;;;;;5043211;28;20071;-42
2023/05/26 08:26:27;;;;;;;21.30;11.05;;;18.70;99.90;;;;;;5043659;28;20052;-43
2023/05/26 08:28:55;;;;;;;14.07;9.10;;;18.70;99.90;;;;;;5049213;28;20095;-44
2023/05/26 08:31:22;;;;;;;11.52;9.57;;;18.70;99.90;;;;;;5040517;28;20054;-41
2023/05/26 08:33:49;;;;;;;13.10;9.27;;;18.80;99.90;;;;;;5039872;28;20067;-43
2023/05/26 08:36:17;;;;;;;12.95;9.48;;;18.70;99.90;;;;;;5048823;28;20437;-43
2023/05/26 08:38:44;;;;;;;13.50;9.48;;;18.70;99.90;;;;;;5058745;28;20049;-44
2023/05/26 08:41:17;;;;;;;13.15;10.43;;;18.90;99.90;;;;;;5048290;28;20049;-46
2023/05/26 08:43:50;;;;;;;19.27;10.57;;;19.00;99.90;;;;;;5054443;28;20045;-44
2023/05/26 08:46:32;;;;;;;12.10;9.40;;;19.20;99.90;;;;;;5054030;28;20132;-43
2023/05/26 08:49:01;;;;;;;16.33;9.80;;;19.40;99.90;;;;;;5047956;28;20045;-42
2023/05/26 08:51:35;;;;;;;19.35;9.70;;;19.50;99.90;;;;;;5045939;28;20056;-42
2023/05/26 08:54:03;;;;;;;12.75;8.82;;;19.50;99.90;;;;;;5050577;28;20413;-42
2023/05/26 08:56:32;;;;;;;12.95;9.77;;;19.60;99.90;;;;;;5031834;28;20061;-45
2023/05/26 08:59:01;;;;;;;10.50;9.40;;;19.60;99.90;;;;;;5036689;28;20567;-43
2023/05/26 09:01:28;;;;;;;13.43;9.88;;;19.60;99.90;;;;;;5045472;28;20048;-45
2023/05/26 09:03:55;;;;;;;18.25;11.85;;;19.60;99.90;;;;;;5041428;28;20049;-43
2023/05/26 09:06:23;;;;;;;12.27;9.25;;;19.70;99.90;;;;;;5050819;28;20073;-42
2023/05/26 09:08:52;;;;;;;22.52;10.85;;;19.90;99.90;;;;;;5042130;28;20045;-44
2023/05/26 09:11:24;;;;;;;13.02;9.93;;;20.10;99.90;;;;;;5050223;28;20147;-43
2023/05/26 09:13:56;;;;;;;13.27;11.00;;;20.20;99.90;;;;;;5034323;28;20403;-43
2023/05/26 09:16:25;;;;;;;17.58;10.75;;;20.30;99.90;;;;;;5050869;28;20056;-42
2023/05/26 09:18:58;;;;;;;12.32;10.18;;;20.40;99.90;;;;;;5034484;28;20095;-44
2023/05/26 09:21:26;;;;;;;17.42;10.40;;;20.60;99.90;;;;;;5050849;28;20049;-43
2023/05/26 09:23:55;;;;;;;16.88;10.73;;;20.70;99.90;;;;;;5034961;28;20452;-45
2023/05/26 09:26:34;;;;;;;14.35;9.55;;;20.90;99.90;;;;;;5044793;28;20474;-45
2023/05/26 09:29:04;;;;;;;12.05;10.10;;;21.10;99.90;;;;;;5038672;28;20037;-44
2023/05/26 09:31:43;;;;;;;12.93;9.45;;;21.20;99.90;;;;;;5050036;28;20186;-43
2023/05/26 09:34:14;;;;;;;12.13;9.63;;;21.30;99.90;;;;;;5044071;28;20391;-45
2023/05/26 09:36:42;;;;;;;13.18;10.23;;;21.50;99.90;;;;;;5051232;28;20057;-44
2023/05/26 09:39:13;;;;;;;12.48;9.88;;;21.60;99.90;;;;;;5041475;28;20065;-44
2023/05/26 09:41:42;;;;;;;;;;;21.70;99.90;;;;;;5039255;28;20417;-43
2023/05/26 09:44:18;;;;;;;11.93;8.82;;;21.80;99.90;;;;;;5033457;28;19966;-44
2023/05/26 09:46:46;;;;;;;12.82;9.30;;;21.70;99.90;;;;;;5050586;28;20143;-44
2023/05/26 09:49:16;;;;;;;10.95;9.82;;;21.70;99.90;;;;;;5046613;28;20049;-45
2023/05/26 09:51:48;;;;;;;13.07;9.35;;;21.80;99.90;;;;;;5053521;28;20053;-43
2023/05/26 09:54:36;;;;;;;68.70;15.02;;;21.80;99.90;;;;;;5044736;28;20045;-45
2023/05/26 09:57:09;;;;;;;19.20;10.60;;;22.30;99.90;;;;;;5049072;28;20099;-45
2023/05/26 09:59:41;;;;;;;11.48;9.55;;;22.60;99.90;;;;;;5050333;28;20049;-42
2023/05/26 10:02:20;;;;;;;12.20;8.80;;;22.80;99.90;;;;;;5052248;28;20110;-45
2023/05/26 10:04:49;;;;;;;10.55;8.57;;;22.90;99.90;;;;;;5053114;28;20517;-42
2023/05/26 10:07:18;;;;;;;12.80;8.95;;;22.90;99.90;;;;;;5044570;28;20151;-44
2023/05/26 10:09:57;;;;;;;12.43;8.95;;;22.80;99.90;;;;;;5053395;28;20132;-43
2023/05/26 10:12:30;;;;;;;11.50;8.57;;;22.70;99.90;;;;;;5035975;28;20103;-44
2023/05/26 10:14:58;;;;;;;11.50;9.60;;;22.90;99.90;;;;;;5037352;28;20049;-45
2023/05/26 10:17:26;;;;;;;12.98;9.90;;;23.10;99.90;;;;;;5050608;28;20517;-43
2023/05/26 10:19:56;;;;;;;15.38;10.10;;;23.40;99.90;;;;;;5041443;28;20069;-46
2023/05/26 10:22:24;;;;;;;13.07;8.55;;;23.60;99.90;;;;;;5045895;28;20478;-45
2023/05/26 10:25:06;;;;;;;12.85;9.82;;;24.00;99.90;;;;;;5042829;28;20166;-42
2023/05/26 10:28:31;;;;;;;14.82;11.90;;;24.20;99.90;;;;;;5041762;28;20159;-43
2023/05/26 10:31:02;;;;;;;10.40;8.80;;;24.70;99.90;;;;;;4950085;29;20070;-42
2023/05/26 10:33:39;;;;;;;13.15;9.27;;;25.10;99.90;;;;;;4954163;29;20069;-42
2023/05/26 10:36:17;;;;;;;13.27;8.93;;;25.20;99.90;;;;;;4954224;29;20044;-44
2023/05/26 10:38:50;;;;;;;11.77;8.63;;;25.20;99.90;;;;;;4943815;29;20114;-44
2023/05/26 10:41:37;;;;;;;13.73;9.35;;;25.60;99.90;;;;;;4932675;29;20044;-40
2023/05/26 10:44:04;;;;;;;12.98;8.45;;;25.00;99.90;;;;;;4941888;29;20051;-42
2023/05/26 10:47:04;;;;;;;11.10;8.20;;;25.30;99.90;;;;;;4947767;29;20130;-43
2023/05/26 10:49:35;;;;;;;9.75;8.10;;;25.70;99.90;;;;;;4937142;29;20567;-43
2023/05/26 10:52:13;;;;;;;10.15;8.27;;;25.90;99.90;;;;;;4942534;29;20083;-43
2023/05/26 10:54:42;;;;;;;12.70;8.85;;;26.20;99.90;;;;;;4949875;29;20122;-41
2023/05/26 10:57:32;;;;;;;9.82;7.95;;;26.30;99.40;;;;;;4943352;29;20050;-45
2023/05/26 11:00:40;;;;;;;10.00;8.80;;;26.60;98.30;;;;;;4939772;29;20161;-45
2023/05/26 11:03:41;;;;;;;12.98;8.20;;;27.10;97.70;;;;;;4902284;29;20211;-42
2023/05/26 11:06:15;;;;;;;10.95;8.85;;;27.20;97.10;;;;;;4908504;29;20056;-45
2023/05/26 11:08:50;;;;;;;11.15;7.78;;;27.20;97.20;;;;;;4961751;28;21639;-45
2023/05/26 11:11:28;;;;;;;12.30;8.98;;;26.80;96.70;;;;;;4962397;28;20050;-43
2023/05/26 11:14:09;;;;;;;10.02;8.32;;;27.10;95.80;;;;;;4965687;28;20039;-42
2023/05/26 11:16:42;;;;;;;10.38;8.25;;;27.40;95.50;;;;;;4972462;28;20070;-44
2023/05/26 11:19:10;;;;;;;11.07;8.27;;;27.80;94.90;;;;;;4973423;28;20073;-44
2023/05/26 11:21:39;;;;;;;10.73;8.30;;;28.00;94.80;;;;;;4977041;28;20086;-44
2023/05/26 11:24:07;;;;;;;10.90;8.68;;;28.20;94.40;;;;;;4958841;28;20035;-44
2023/05/26 11:26:34;;;;;;;12.43;8.63;;;28.30;93.10;;;;;;4959794;28;20086;-44
2023/05/26 11:29:04;;;;;;;14.77;8.35;;;27.80;93.30;;;;;;4966550;28;20046;-44
2023/05/26 11:31:32;;;;;;;14.02;8.52;;;28.10;92.70;;;;;;4969197;28;20047;-44
2023/05/26 11:34:00;;;;;;;20.08;9.00;;;28.30;92.80;;;;;;5002755;28;20069;-44
2023/05/26 11:36:28;;;;;;;15.15;9.40;;;28.30;92.00;;;;;;5052013;28;20041;-40
2023/05/26 11:39:00;;;;;;;9.52;8.50;;;27.60;92.20;;;;;;5048260;28;20128;-41
2023/05/26 11:41:29;;;;;;;14.30;8.27;;;28.10;92.10;;;;;;5043526;28;20418;-41
2023/05/26 11:43:56;;;;;;;10.95;8.10;;;28.30;91.40;;;;;;5051753;28;20087;-42
2023/05/26 11:46:30;;;;;;;14.77;8.63;;;28.10;91.20;;;;;;5037978;28;20049;-45
2023/05/26 11:48:57;;;;;;;13.23;8.20;;;28.30;91.00;;;;;;5047380;28;20041;-43
2023/05/26 11:51:25;;;;;;;9.60;8.57;;;28.50;91.00;;;;;;5047832;28;20041;-40
2023/05/26 11:53:55;;;;;;;10.82;8.40;;;28.50;90.50;;;;;;5044635;28;20452;-43
2023/05/26 11:56:35;;;;;;;12.07;8.13;;;28.20;90.90;;;;;;5049037;28;20048;-43
2023/05/26 11:59:03;;;;;;;13.52;8.38;;;28.00;90.40;;;;;;5037303;28;20053;-42
2023/05/26 12:01:32;;;;;;;10.40;8.80;;;28.70;89.80;;;;;;5044909;28;20049;-45
2023/05/26 12:04:00;;;;;;;10.02;7.60;;;28.40;87.70;;;;;;5051634;28;20111;-44
2023/05/26 12:06:30;;;;;;;10.98;7.90;;;28.20;88.10;;;;;;5052974;28;20048;-41
2023/05/26 12:09:20;;;;;;;9.80;8.00;;;28.30;88.70;;;;;;5042384;28;20049;-42
2023/05/26 12:11:52;;;;;;;9.77;8.02;;;28.90;87.70;;;;;;5050317;28;20053;-45
2023/05/26 12:14:22;;;;;;;10.27;7.97;;;29.50;85.90;;;;;;5045668;28;20056;-44
2023/05/26 12:16:52;;;;;;;10.68;8.00;;;30.30;84.50;;;;;;5041882;28;20037;-43
2023/05/26 12:19:23;;;;;;;8.65;7.75;;;30.40;81.80;;;;;;5050629;28;20056;-44
2023/05/26 12:21:56;;;;;;;10.45;8.05;;;29.30;82.70;;;;;;5041709;28;20136;-44
2023/05/26 12:24:34;;;;;;;12.02;8.38;;;29.00;83.60;;;;;;5040849;28;20048;-45
2023/05/26 12:27:08;;;;;;;10.77;7.35;;;29.70;82.50;;;;;;5041643;28;20573;-45
2023/05/26 12:29:37;;;;;;;11.48;8.27;;;30.70;80.40;;;;;;5046682;28;20059;-43
2023/05/26 12:32:06;;;;;;;8.90;7.53;;;31.30;78.50;;;;;;5040981;28;20072;-45
2023/05/26 12:34:35;;;;;;;13.00;8.70;;;31.50;75.00;;;;;;5041657;28;20076;-44
2023/05/26 12:37:02;;;;;;;11.77;8.52;;;31.40;72.60;;;;;;5042211;28;20072;-44
2023/05/26 12:39:31;;;;;;;12.93;7.80;;;30.40;74.00;;;;;;5034939;28;20025;-43
2023/05/26 12:42:01;;;;;;;9.85;8.32;;;30.10;75.80;;;;;;5042853;28;20578;-43
2023/05/26 12:44:29;;;;;;;11.82;8.00;;;31.10;75.20;;;;;;5039193;28;20123;-42
2023/05/26 12:46:56;;;;;;;11.95;8.80;;;32.30;72.00;;;;;;5041149;28;20453;-41
2023/05/26 12:49:23;;;;;;;8.73;7.82;;;33.00;68.70;;;;;;5040111;28;20436;-44